sensor_id;sensor_type;location;lat;lon;timestamp;pressure;altitude;pressure_sealevel;temperature
73685;BMP280;61985;51.070;14.064;2023-08-07T05:26:31;97584.72;;;13.69
73685;BMP280;61985;51.070;14.064;2023-08-07T05:32:01;97591.09;;;13.72
73685;BMP280;61985;51.070;14.064;2023-08-07T05:37:22;97594.47;;;13.81
73685;BMP280;61985;51.070;14.064;2023-08-07T05:39:54;97595.69;;;13.80
73685;BMP280;61985;51.070;14.064;2023-08-07T05:42:25;97602.09;;;13.83
73685;BMP280;61985;51.070;14.064;2023-08-07T05:56:57;97623.25;;;13.99
73685;BMP280;61985;51.070;14.064;2023-08-07T05:59:23;97627.22;;;14.04
73685;BMP280;61985;51.070;14.064;2023-08-07T06:01:48;97628.00;;;14.04
73685;BMP280;61985;51.070;14.064;2023-08-07T06:04:14;97637.25;;;13.98
73685;BMP280;61985;51.070;14.064;2023-08-07T06:06:39;97629.88;;;13.98
73685;BMP280;61985;51.070;14.064;2023-08-07T06:09:06;97632.59;;;13.98
73685;BMP280;61985;51.070;14.064;2023-08-07T06:11:32;97648.44;;;14.05
73685;BMP280;61985;51.070;14.064;2023-08-07T06:13:58;97644.75;;;14.08
73685;BMP280;61985;51.070;14.064;2023-08-07T06:16:23;97663.09;;;14.14
73685;BMP280;61985;51.070;14.064;2023-08-07T06:18:49;97654.47;;;14.15
73685;BMP280;61985;51.070;14.064;2023-08-07T06:21:14;97661.94;;;14.20
73685;BMP280;61985;51.070;14.064;2023-08-07T06:23:40;97657.22;;;14.21
73685;BMP280;61985;51.070;14.064;2023-08-07T06:26:06;97659.47;;;14.22
73685;BMP280;61985;51.070;14.064;2023-08-07T06:28:33;97665.78;;;14.34
73685;BMP280;61985;51.070;14.064;2023-08-07T06:31:02;97678.25;;;14.46
73685;BMP280;61985;51.070;14.064;2023-08-07T06:33:28;97677.72;;;14.42
73685;BMP280;61985;51.070;14.064;2023-08-07T06:35:53;97670.34;;;14.43
73685;BMP280;61985;51.070;14.064;2023-08-07T06:38:19;97682.72;;;14.50
73685;BMP280;61985;51.070;14.064;2023-08-07T06:40:44;97692.75;;;14.43
73685;BMP280;61985;51.070;14.064;2023-08-07T06:43:10;97681.34;;;14.39
73685;BMP280;61985;51.070;14.064;2023-08-07T06:45:35;97682.16;;;14.45
73685;BMP280;61985;51.070;14.064;2023-08-07T06:48:00;97689.09;;;14.46
73685;BMP280;61985;51.070;14.064;2023-08-07T06:50:26;97696.53;;;14.52
73685;BMP280;61985;51.070;14.064;2023-08-07T06:52:51;97687.69;;;14.51
73685;BMP280;61985;51.070;14.064;2023-08-07T06:55:17;97687.19;;;14.53
73685;BMP280;61985;51.070;14.064;2023-08-07T06:57:42;97696.41;;;14.61
73685;BMP280;61985;51.070;14.064;2023-08-07T07:00:08;97694.78;;;14.69
73685;BMP280;61985;51.070;14.064;2023-08-07T07:02:36;97693.53;;;14.70
73685;BMP280;61985;51.070;14.064;2023-08-07T07:05:01;97698.50;;;14.72
73685;BMP280;61985;51.070;14.064;2023-08-07T07:07:26;97703.34;;;14.62
73685;BMP280;61985;51.070;14.064;2023-08-07T07:09:52;97696.88;;;14.59
73685;BMP280;61985;51.070;14.064;2023-08-07T07:12:17;97701.41;;;14.47
73685;BMP280;61985;51.070;14.064;2023-08-07T07:14:43;97711.50;;;14.47
73685;BMP280;61985;51.070;14.064;2023-08-07T07:17:08;97708.19;;;14.37
73685;BMP280;61985;51.070;14.064;2023-08-07T07:19:33;97709.53;;;14.47
73685;BMP280;61985;51.070;14.064;2023-08-07T07:21:59;97711.47;;;14.62
73685;BMP280;61985;51.070;14.064;2023-08-07T07:24:24;97710.69;;;14.82
73685;BMP280;61985;51.070;14.064;2023-08-07T07:26:49;97719.66;;;14.94
73685;BMP280;61985;51.070;14.064;2023-08-07T07:29:17;97715.84;;;15.06
73685;BMP280;61985;51.070;14.064;2023-08-07T07:31:43;97724.28;;;15.08
73685;BMP280;61985;51.070;14.064;2023-08-07T07:34:08;97725.13;;;15.20
73685;BMP280;61985;51.070;14.064;2023-08-07T07:36:33;97734.59;;;15.30
73685;BMP280;61985;51.070;14.064;2023-08-07T07:38:59;97729.16;;;15.56
73685;BMP280;61985;51.070;14.064;2023-08-07T07:41:24;97737.34;;;15.62
73685;BMP280;61985;51.070;14.064;2023-08-07T07:43:50;97741.66;;;15.48
73685;BMP280;61985;51.070;14.064;2023-08-07T07:46:15;97738.97;;;15.54
73685;BMP280;61985;51.070;14.064;2023-08-07T07:48:40;97737.34;;;15.36
73685;BMP280;61985;51.070;14.064;2023-08-07T07:51:06;97743.53;;;15.36
73685;BMP280;61985;51.070;14.064;2023-08-07T07:53:31;97745.22;;;15.28
73685;BMP280;61985;51.070;14.064;2023-08-07T07:55:57;97748.09;;;15.24
73685;BMP280;61985;51.070;14.064;2023-08-07T07:58:23;97760.94;;;15.24
73685;BMP280;61985;51.070;14.064;2023-08-07T08:00:48;97755.03;;;15.25
73685;BMP280;61985;51.070;14.064;2023-08-07T08:03:14;97768.75;;;15.16
73685;BMP280;61985;51.070;14.064;2023-08-07T08:05:40;97769.44;;;15.11
73685;BMP280;61985;51.070;14.064;2023-08-07T08:08:06;97769.22;;;15.15
73685;BMP280;61985;51.070;14.064;2023-08-07T08:10:32;97773.19;;;15.40
73685;BMP280;61985;51.070;14.064;2023-08-07T08:12:58;97775.13;;;15.65
73685;BMP280;61985;51.070;14.064;2023-08-07T08:15:23;97774.28;;;15.85
73685;BMP280;61985;51.070;14.064;2023-08-07T08:17:49;97774.31;;;15.91
73685;BMP280;61985;51.070;14.064;2023-08-07T08:20:14;97772.94;;;16.01
73685;BMP280;61985;51.070;14.064;2023-08-07T08:22:44;97783.41;;;16.20
73685;BMP280;61985;51.070;14.064;2023-08-07T08:25:10;97793.44;;;16.45
73685;BMP280;61985;51.070;14.064;2023-08-07T08:27:37;97793.38;;;16.34
73685;BMP280;61985;51.070;14.064;2023-08-07T08:30:03;97799.63;;;16.08
73685;BMP280;61985;51.070;14.064;2023-08-07T08:32:29;97797.91;;;16.11
73685;BMP280;61985;51.070;14.064;2023-08-07T08:34:54;97796.09;;;16.34
73685;BMP280;61985;51.070;14.064;2023-08-07T08:37:21;97808.66;;;16.26
73685;BMP280;61985;51.070;14.064;2023-08-07T08:39:46;97806.28;;;16.39
73685;BMP280;61985;51.070;14.064;2023-08-07T08:42:12;97811.22;;;16.46
73685;BMP280;61985;51.070;14.064;2023-08-07T08:44:40;97815.28;;;16.62
73685;BMP280;61985;51.070;14.064;2023-08-07T08:47:07;97808.84;;;16.60
73685;BMP280;61985;51.070;14.064;2023-08-07T08:49:42;97807.19;;;16.79
73685;BMP280;61985;51.070;14.064;2023-08-07T08:52:09;97808.63;;;16.69
73685;BMP280;61985;51.070;14.064;2023-08-07T08:54:35;97811.34;;;16.69
73685;BMP280;61985;51.070;14.064;2023-08-07T08:57:01;97817.56;;;16.75
73685;BMP280;61985;51.070;14.064;2023-08-07T08:59:27;97810.41;;;16.89
73685;BMP280;61985;51.070;14.064;2023-08-07T09:01:53;97813.47;;;17.08
73685;BMP280;61985;51.070;14.064;2023-08-07T09:04:18;97810.03;;;17.19
73685;BMP280;61985;51.070;14.064;2023-08-07T09:06:44;97811.00;;;17.21
73685;BMP280;61985;51.070;14.064;2023-08-07T09:09:12;97812.69;;;17.02
73685;BMP280;61985;51.070;14.064;2023-08-07T09:11:43;97808.41;;;16.78
73685;BMP280;61985;51.070;14.064;2023-08-07T09:14:20;97815.56;;;16.76
73685;BMP280;61985;51.070;14.064;2023-08-07T09:16:47;97816.72;;;16.58
73685;BMP280;61985;51.070;14.064;2023-08-07T09:19:13;97822.97;;;16.69
73685;BMP280;61985;51.070;14.064;2023-08-07T09:32:31;97834.69;;;16.92
73685;BMP280;61985;51.070;14.064;2023-08-07T09:35:05;97830.81;;;16.56
73685;BMP280;61985;51.070;14.064;2023-08-07T09:37:31;97831.50;;;16.45
73685;BMP280;61985;51.070;14.064;2023-08-07T09:40:02;97838.19;;;16.44
73685;BMP280;61985;51.070;14.064;2023-08-07T09:42:51;97844.03;;;16.37
73685;BMP280;61985;51.070;14.064;2023-08-07T09:48:23;97837.81;;;16.68
73685;BMP280;61985;51.070;14.064;2023-08-07T09:50:49;97837.66;;;16.95
73685;BMP280;61985;51.070;14.064;2023-08-07T09:53:30;97831.75;;;17.02
73685;BMP280;61985;51.070;14.064;2023-08-07T17:19:34;98178.41;;;13.84
73685;BMP280;61985;51.070;14.064;2023-08-07T17:21:59;98178.56;;;13.81
73685;BMP280;61985;51.070;14.064;2023-08-07T17:24:46;98195.69;;;13.78
73685;BMP280;61985;51.070;14.064;2023-08-07T17:27:14;98172.41;;;13.80
73685;BMP280;61985;51.070;14.064;2023-08-07T17:29:40;98175.69;;;13.84
73685;BMP280;61985;51.070;14.064;2023-08-07T17:32:05;98180.66;;;13.86
73685;BMP280;61985;51.070;14.064;2023-08-07T17:34:31;98180.00;;;13.91
73685;BMP280;61985;51.070;14.064;2023-08-07T17:36:56;98185.09;;;13.98
73685;BMP280;61985;51.070;14.064;2023-08-07T17:39:24;98189.75;;;13.98
73685;BMP280;61985;51.070;14.064;2023-08-07T17:41:50;98190.22;;;13.96
73685;BMP280;61985;51.070;14.064;2023-08-07T17:44:15;98184.69;;;13.91
73685;BMP280;61985;51.070;14.064;2023-08-07T17:46:42;98203.19;;;13.92
73685;BMP280;61985;51.070;14.064;2023-08-07T17:49:07;98197.19;;;13.88
73685;BMP280;61985;51.070;14.064;2023-08-07T17:51:33;98201.53;;;13.85
73685;BMP280;61985;51.070;14.064;2023-08-07T17:54:00;98202.78;;;13.84
73685;BMP280;61985;51.070;14.064;2023-08-07T17:56:26;98210.00;;;13.78
73685;BMP280;61985;51.070;14.064;2023-08-07T17:58:53;98214.69;;;13.69
73685;BMP280;61985;51.070;14.064;2023-08-07T18:01:18;98224.66;;;13.62
73685;BMP280;61985;51.070;14.064;2023-08-07T18:03:47;98232.19;;;13.58
73685;BMP280;61985;51.070;14.064;2023-08-07T18:06:13;98224.22;;;13.55
73685;BMP280;61985;51.070;14.064;2023-08-07T18:08:39;98224.81;;;13.59
73685;BMP280;61985;51.070;14.064;2023-08-07T18:11:04;98233.38;;;13.57
73685;BMP280;61985;51.070;14.064;2023-08-07T18:13:30;98231.59;;;13.54
73685;BMP280;61985;51.070;14.064;2023-08-07T18:15:55;98227.69;;;13.55
73685;BMP280;61985;51.070;14.064;2023-08-07T18:18:23;98235.34;;;13.57
73685;BMP280;61985;51.070;14.064;2023-08-07T18:20:49;98233.66;;;13.59
73685;BMP280;61985;51.070;14.064;2023-08-07T18:23:15;98239.41;;;13.61
73685;BMP280;61985;51.070;14.064;2023-08-07T18:25:40;98243.75;;;13.59
73685;BMP280;61985;51.070;14.064;2023-08-07T18:28:06;98253.06;;;13.58
73685;BMP280;61985;51.070;14.064;2023-08-07T18:30:31;98261.50;;;13.60
73685;BMP280;61985;51.070;14.064;2023-08-07T18:32:57;98252.16;;;13.61
73685;BMP280;61985;51.070;14.064;2023-08-07T18:35:25;98247.19;;;13.59
73685;BMP280;61985;51.070;14.064;2023-08-07T18:37:50;98254.13;;;13.60
73685;BMP280;61985;51.070;14.064;2023-08-07T18:40:15;98247.81;;;13.54
73685;BMP280;61985;51.070;14.064;2023-08-07T18:42:41;98247.97;;;13.51
73685;BMP280;61985;51.070;14.064;2023-08-07T20:18:11;98332.78;;;13.01
73685;BMP280;61985;51.070;14.064;2023-08-07T20:20:36;98341.94;;;13.04
73685;BMP280;61985;51.070;14.064;2023-08-07T20:23:02;98342.97;;;13.06
73685;BMP280;61985;51.070;14.064;2023-08-07T20:25:27;98342.97;;;13.06
73685;BMP280;61985;51.070;14.064;2023-08-07T20:27:53;98340.44;;;13.03
73685;BMP280;61985;51.070;14.064;2023-08-07T20:30:18;98350.53;;;13.02
73685;BMP280;61985;51.070;14.064;2023-08-07T20:32:44;98349.00;;;13.01
73685;BMP280;61985;51.070;14.064;2023-08-07T20:35:09;98347.94;;;12.99
73685;BMP280;61985;51.070;14.064;2023-08-07T20:37:35;98357.56;;;13.00
73685;BMP280;61985;51.070;14.064;2023-08-07T20:40:04;98357.56;;;13.00
73685;BMP280;61985;51.070;14.064;2023-08-07T20:42:29;98354.41;;;13.01
73685;BMP280;61985;51.070;14.064;2023-08-07T20:44:56;98362.81;;;13.03
73685;BMP280;61985;51.070;14.064;2023-08-07T20:47:21;98361.34;;;13.02
73685;BMP280;61985;51.070;14.064;2023-08-07T20:49:47;98354.53;;;12.98
73685;BMP280;61985;51.070;14.064;2023-08-07T20:52:26;98355.16;;;13.02
73685;BMP280;61985;51.070;14.064;2023-08-07T20:55:13;98364.31;;;13.04
73685;BMP280;61985;51.070;14.064;2023-08-07T21:24:40;98370.47;;;12.96
73685;BMP280;61985;51.070;14.064;2023-08-07T21:30:51;98374.06;;;12.93
